Track Трегубов Никита

Time Latitude Longitude Accuracy (66% radius in meters) Altitude (meters) Speed (km/hour) Bearing (degrees) Battery (%) GPS flag
04:18:28 51.898253 107.664800 1 670.4 0 124.44999694824 87 1 delete
04:18:18 51.898278 107.664803 1.7000000476837 667.3 1.2111413478851 25.020000457764 87 1 delete
04:18:11 51.898280 107.664648 1.7000000476837 666.4 1.5987272262573 97.580001831055 87 1 delete
04:18:08 51.898287 107.664572 1.7000000476837 665.9 1.7706444263458 92.069999694824 87 1 delete
04:18:06 51.898290 107.664503 1.7000000476837 665.3 1.8061603307724 79.089996337891 87 1 delete
04:18:01 51.898292 107.664333 1.7000000476837 665.2 1.4494577646255 95.269996643066 87 1 delete
04:17:57 51.898312 107.664213 1.7999999523163 664.7 1.3228361606598 90.699996948242 87 1 delete
04:17:55 51.898320 107.664168 1.7999999523163 664.6 1.374308347702 105.36000061035 87 1 delete
04:17:48 51.898348 107.664008 1.7999999523163 663.9 1.6661558151245 119.4700012207 87 1 delete
04:17:47 51.898358 107.663985 1.7999999523163 664 1.6872594356537 131.19000244141 87 1 delete
04:17:42 51.898383 107.663865 1.7999999523163 663.9 1.5781383514404 89.449996948242 87 1 delete
04:17:37 51.898368 107.663698 1.7999999523163 664.1 1.25901055336 73.879997253418 87 1 delete
04:17:30 51.898385 107.663538 1.7999999523163 664.5 1.1936408281326 92.620002746582 87 1 delete
04:17:26 51.898410 107.663438 1.8999999761581 665.1 1.3470280170441 111.36000061035 87 1 delete
04:17:24 51.898427 107.663405 1.8999999761581 665.4 1.5472550392151 115.51999664307 87 1 delete
04:17:17 51.898452 107.663245 1.8999999761581 667.7 1.6404197216034 131.82000732422 87 1 delete
04:17:16 51.898467 107.663217 1.7999999523163 668 1.5606378316879 131.94999694824 87 1 delete
04:17:12 51.898517 107.663123 1.7999999523163 669 1.5349016189575 108.73999786377 87 1 delete
04:17:06 51.898573 107.662998 1.7000000476837 672.2 2.3661780357361 135.24000549316 87 1 delete
04:17:05 51.898590 107.662988 1.7000000476837 673.3 2.4737548828125 139.83000183105 87 1 delete
04:17:01 51.898653 107.662917 1.7000000476837 676.2 2.2724986076355 136.80999755859 87 1 delete
04:16:58 51.898738 107.662840 1.7000000476837 678.3 1.5251219272614 165.44000244141 87 1 delete
04:16:55 51.898800 107.662787 1.7000000476837 679.8 0.93885332345963 147.7200012207 87 1 delete
04:16:52 51.898827 107.662738 1.6000000238419 680.6 0.77156859636307 124.12000274658 87 1 delete
04:16:45 51.898875 107.662678 1.6000000238419 682.4 0.8652480840683 139.2200012207 87 1 delete
04:16:41 51.898907 107.662647 1.7000000476837 683.3 0.90436697006226 137.99000549316 87 1 delete
04:16:34 51.898955 107.662585 1.7000000476837 683.4 1.2945263385773 132.2200012207 87 1 delete
04:16:29 51.898988 107.662558 1.7999999523163 682.1 1.2579810619354 177.88000488281 87 1 delete
04:16:24 51.899057 107.662503 1.7999999523163 682.3 0.89046943187714 138.28999328613 87 1 delete
04:16:21 51.899070 107.662477 1.8999999761581 682.9 1.0320180654526 181.69999694824 87 1 delete
04:16:14 51.899140 107.662407 1.7999999523163 683.9 1.1154030561447 122.79000091553 87 1 delete
04:16:13 51.899147 107.662393 1.7999999523163 684.1 1.1375361680984 151.11000061035 87 1 delete
04:16:06 51.899235 107.662323 1.7999999523163 684.6 0.90282279253006 108.75 87 1 delete
04:16:03 51.899257 107.662278 1.7000000476837 684.8 0.84362971782684 117.01000213623 87 1 delete
04:15:57 51.899268 107.662188 1.6000000238419 684.7 0.92186748981476 82.430000305176 87 1 delete
04:15:53 51.899272 107.662112 1.7000000476837 684.1 0.84826225042343 66.440002441406 87 1 delete
04:15:48 51.899262 107.662027 1.7000000476837 682.5 0.96304529905319 66.349998474121 87 1 delete
04:15:43 51.899253 107.661953 1.7000000476837 680.6 1.2518044710159 68.190002441406 87 1 delete
04:15:38 51.899232 107.661873 1.7000000476837 679.3 1.2713638544083 57.919998168945 87 1 delete
04:15:32 51.899215 107.661752 1.7999999523163 676.5 1.2415100336075 72.709999084473 87 1 delete
04:15:31 51.899215 107.661730 1.7000000476837 676.2 1.2739374637604 53.049999237061 87 1 delete
04:15:23 51.899203 107.661568 1.7000000476837 672.9 1.4401928186417 65.400001525879 87 1 delete
04:15:22 51.899198 107.661542 1.7000000476837 672.5 1.4473989009857 76.150001525879 87 1 delete
04:15:17 51.899197 107.661398 1.7000000476837 671.3 1.2945263385773 64.430000305176 87 1 delete
04:15:12 51.899175 107.661237 1.8999999761581 669.4 1.2445983886719 76.699996948242 87 1 delete
04:15:06 51.899153 107.661075 1.7999999523163 670.7 1.4232069253922 96.769996643066 87 1 delete
04:15:01 51.899145 107.660965 1.7999999523163 672.4 2.0964636802673 65.860000610352 87 1 delete
04:14:59 51.899137 107.660917 1.7999999523163 674.2 2.3749282360077 56.560001373291 87 1 delete
04:14:54 51.899080 107.660772 1.8999999761581 677.8 2.3697810173035 43.810001373291 87 1 delete
04:14:51 51.899025 107.660665 1.7999999523163 679.1 1.8818244934082 43.029998779297 87 1 delete